sensor_id;sensor_type;location;lat;lon;timestamp;P1;durP1;ratioP1;P2;durP2;ratioP2
9712;SDS011;4895;50.926;6.870;2022-11-04T00:01:36;2.60;;;1.30;;
9712;SDS011;4895;50.926;6.870;2022-11-04T00:04:02;2.97;;;1.40;;
9712;SDS011;4895;50.926;6.870;2022-11-04T00:06:28;2.30;;;1.40;;
9712;SDS011;4895;50.926;6.870;2022-11-04T00:08:54;1.40;;;0.90;;
9712;SDS011;4895;50.926;6.870;2022-11-04T00:11:21;3.00;;;1.10;;
9712;SDS011;4895;50.926;6.870;2022-11-04T00:14:06;1.90;;;1.23;;
9712;SDS011;4895;50.926;6.870;2022-11-04T00:16:33;1.70;;;1.20;;
9712;SDS011;4895;50.926;6.870;2022-11-04T00:19:17;2.70;;;1.30;;
9712;SDS011;4895;50.926;6.870;2022-11-04T00:21:42;3.47;;;2.17;;
9712;SDS011;4895;50.926;6.870;2022-11-04T00:24:26;3.10;;;1.83;;
9712;SDS011;4895;50.926;6.870;2022-11-04T00:27:13;4.10;;;2.10;;
9712;SDS011;4895;50.926;6.870;2022-11-04T00:29:59;4.30;;;1.93;;
9712;SDS011;4895;50.926;6.870;2022-11-04T00:32:24;4.93;;;1.97;;
9712;SDS011;4895;50.926;6.870;2022-11-04T00:35:09;6.67;;;2.20;;
9712;SDS011;4895;50.926;6.870;2022-11-04T00:37:35;3.07;;;1.93;;
9712;SDS011;4895;50.926;6.870;2022-11-04T00:40:04;4.37;;;1.60;;
9712;SDS011;4895;50.926;6.870;2022-11-04T00:42:31;4.90;;;1.50;;
9712;SDS011;4895;50.926;6.870;2022-11-04T00:44:56;3.83;;;1.90;;
9712;SDS011;4895;50.926;6.870;2022-11-04T00:47:22;2.40;;;1.77;;
9712;SDS011;4895;50.926;6.870;2022-11-04T00:49:47;3.33;;;1.37;;
9712;SDS011;4895;50.926;6.870;2022-11-04T00:52:13;3.50;;;1.87;;
9712;SDS011;4895;50.926;6.870;2022-11-04T00:54:38;2.80;;;1.60;;
9712;SDS011;4895;50.926;6.870;2022-11-04T00:57:03;4.40;;;1.67;;
9712;SDS011;4895;50.926;6.870;2022-11-04T00:59:28;3.80;;;1.80;;
9712;SDS011;4895;50.926;6.870;2022-11-04T01:01:54;3.10;;;1.60;;
9712;SDS011;4895;50.926;6.870;2022-11-04T01:04:20;7.33;;;1.53;;
9712;SDS011;4895;50.926;6.870;2022-11-04T01:06:45;2.10;;;1.53;;
9712;SDS011;4895;50.926;6.870;2022-11-04T01:09:10;2.40;;;1.53;;
9712;SDS011;4895;50.926;6.870;2022-11-04T01:11:36;3.40;;;1.63;;
9712;SDS011;4895;50.926;6.870;2022-11-04T01:14:02;3.00;;;1.70;;
9712;SDS011;4895;50.926;6.870;2022-11-04T01:16:28;2.63;;;1.50;;
9712;SDS011;4895;50.926;6.870;2022-11-04T01:18:53;2.10;;;1.27;;
9712;SDS011;4895;50.926;6.870;2022-11-04T01:21:19;1.93;;;1.20;;
9712;SDS011;4895;50.926;6.870;2022-11-04T01:23:45;2.60;;;1.33;;
9712;SDS011;4895;50.926;6.870;2022-11-04T01:26:14;2.13;;;1.20;;
9712;SDS011;4895;50.926;6.870;2022-11-04T01:28:41;4.93;;;1.40;;
9712;SDS011;4895;50.926;6.870;2022-11-04T01:31:11;7.20;;;1.97;;
9712;SDS011;4895;50.926;6.870;2022-11-04T01:33:38;1.63;;;1.13;;
9712;SDS011;4895;50.926;6.870;2022-11-04T01:36:04;4.53;;;1.27;;
9712;SDS011;4895;50.926;6.870;2022-11-04T01:38:30;3.50;;;1.07;;
9712;SDS011;4895;50.926;6.870;2022-11-04T01:40:56;1.93;;;1.10;;
9712;SDS011;4895;50.926;6.870;2022-11-04T01:43:22;3.83;;;2.00;;
9712;SDS011;4895;50.926;6.870;2022-11-04T01:45:48;3.67;;;1.20;;
9712;SDS011;4895;50.926;6.870;2022-11-04T01:48:26;4.63;;;1.50;;
9712;SDS011;4895;50.926;6.870;2022-11-04T01:50:55;7.43;;;1.20;;
9712;SDS011;4895;50.926;6.870;2022-11-04T01:53:29;6.67;;;1.40;;
9712;SDS011;4895;50.926;6.870;2022-11-04T01:55:58;2.43;;;1.00;;
9712;SDS011;4895;50.926;6.870;2022-11-04T01:58:25;5.17;;;1.30;;
9712;SDS011;4895;50.926;6.870;2022-11-04T02:00:54;7.10;;;1.30;;
9712;SDS011;4895;50.926;6.870;2022-11-04T02:03:42;4.47;;;1.17;;
9712;SDS011;4895;50.926;6.870;2022-11-04T02:06:07;2.50;;;1.33;;
9712;SDS011;4895;50.926;6.870;2022-11-04T02:08:33;7.70;;;1.17;;
9712;SDS011;4895;50.926;6.870;2022-11-04T02:11:00;3.30;;;1.20;;
9712;SDS011;4895;50.926;6.870;2022-11-04T02:13:27;10.50;;;1.20;;
9712;SDS011;4895;50.926;6.870;2022-11-04T02:45:42;4.37;;;1.43;;
9712;SDS011;4895;50.926;6.870;2022-11-04T02:54:18;4.73;;;1.40;;
9712;SDS011;4895;50.926;6.870;2022-11-04T02:56:49;2.30;;;1.10;;
9712;SDS011;4895;50.926;6.870;2022-11-04T02:59:31;3.53;;;1.53;;
9712;SDS011;4895;50.926;6.870;2022-11-04T03:02:00;10.60;;;1.57;;
9712;SDS011;4895;50.926;6.870;2022-11-04T03:04:29;3.20;;;1.50;;
9712;SDS011;4895;50.926;6.870;2022-11-04T03:06:56;6.40;;;1.60;;
9712;SDS011;4895;50.926;6.870;2022-11-04T03:09:23;5.37;;;1.43;;
9712;SDS011;4895;50.926;6.870;2022-11-04T03:11:51;6.10;;;1.80;;
9712;SDS011;4895;50.926;6.870;2022-11-04T03:14:24;10.10;;;1.80;;
9712;SDS011;4895;50.926;6.870;2022-11-04T03:16:53;3.43;;;1.20;;
9712;SDS011;4895;50.926;6.870;2022-11-04T03:22:14;5.90;;;1.40;;
9712;SDS011;4895;50.926;6.870;2022-11-04T03:24:41;5.00;;;1.50;;
9712;SDS011;4895;50.926;6.870;2022-11-04T03:27:14;6.73;;;1.70;;
9712;SDS011;4895;50.926;6.870;2022-11-04T03:34:56;4.50;;;1.37;;
9712;SDS011;4895;50.926;6.870;2022-11-04T03:37:22;6.17;;;1.40;;
9712;SDS011;4895;50.926;6.870;2022-11-04T03:39:47;8.93;;;1.70;;
9712;SDS011;4895;50.926;6.870;2022-11-04T03:42:12;4.37;;;1.50;;
9712;SDS011;4895;50.926;6.870;2022-11-04T03:44:48;7.87;;;1.70;;
9712;SDS011;4895;50.926;6.870;2022-11-04T03:47:14;4.30;;;1.40;;
9712;SDS011;4895;50.926;6.870;2022-11-04T03:49:40;11.40;;;1.80;;
9712;SDS011;4895;50.926;6.870;2022-11-04T03:52:05;6.83;;;1.60;;
9712;SDS011;4895;50.926;6.870;2022-11-04T03:54:30;8.97;;;2.03;;
9712;SDS011;4895;50.926;6.870;2022-11-04T04:02:19;10.30;;;2.63;;
9712;SDS011;4895;50.926;6.870;2022-11-04T04:04:58;13.63;;;2.20;;
9712;SDS011;4895;50.926;6.870;2022-11-04T04:07:36;8.33;;;2.07;;
9712;SDS011;4895;50.926;6.870;2022-11-04T04:13:08;11.70;;;1.70;;
9712;SDS011;4895;50.926;6.870;2022-11-04T04:15:41;7.87;;;1.60;;
9712;SDS011;4895;50.926;6.870;2022-11-04T04:18:11;8.10;;;1.70;;
9712;SDS011;4895;50.926;6.870;2022-11-04T04:20:37;7.20;;;2.17;;
9712;SDS011;4895;50.926;6.870;2022-11-04T04:23:14;7.27;;;1.70;;
9712;SDS011;4895;50.926;6.870;2022-11-04T04:26:01;14.20;;;2.10;;
9712;SDS011;4895;50.926;6.870;2022-11-04T04:28:47;13.13;;;1.80;;
9712;SDS011;4895;50.926;6.870;2022-11-04T04:31:14;11.60;;;1.60;;
9712;SDS011;4895;50.926;6.870;2022-11-04T04:34:00;6.60;;;1.97;;
9712;SDS011;4895;50.926;6.870;2022-11-04T04:36:26;6.43;;;1.80;;
9712;SDS011;4895;50.926;6.870;2022-11-04T04:38:52;9.67;;;2.07;;
9712;SDS011;4895;50.926;6.870;2022-11-04T04:41:36;10.73;;;2.00;;
9712;SDS011;4895;50.926;6.870;2022-11-04T04:44:22;7.57;;;2.13;;
9712;SDS011;4895;50.926;6.870;2022-11-04T04:47:07;7.00;;;2.10;;
9712;SDS011;4895;50.926;6.870;2022-11-04T04:49:34;10.37;;;2.60;;
9712;SDS011;4895;50.926;6.870;2022-11-04T04:52:03;8.57;;;2.13;;
9712;SDS011;4895;50.926;6.870;2022-11-04T04:54:30;10.60;;;2.30;;
9712;SDS011;4895;50.926;6.870;2022-11-04T04:56:56;7.20;;;1.83;;
9712;SDS011;4895;50.926;6.870;2022-11-04T04:59:21;6.67;;;1.93;;
9712;SDS011;4895;50.926;6.870;2022-11-04T05:01:46;7.60;;;2.30;;
9712;SDS011;4895;50.926;6.870;2022-11-04T05:04:12;6.83;;;2.00;;
9712;SDS011;4895;50.926;6.870;2022-11-04T05:06:37;5.90;;;1.70;;
9712;SDS011;4895;50.926;6.870;2022-11-04T05:09:02;7.53;;;1.90;;
9712;SDS011;4895;50.926;6.870;2022-11-04T05:11:28;9.77;;;2.23;;
9712;SDS011;4895;50.926;6.870;2022-11-04T05:13:53;6.83;;;1.63;;
9712;SDS011;4895;50.926;6.870;2022-11-04T05:16:19;17.20;;;2.57;;
9712;SDS011;4895;50.926;6.870;2022-11-04T05:18:44;5.67;;;1.93;;
9712;SDS011;4895;50.926;6.870;2022-11-04T05:21:11;6.23;;;1.50;;
9712;SDS011;4895;50.926;6.870;2022-11-04T05:23:38;5.80;;;2.00;;
9712;SDS011;4895;50.926;6.870;2022-11-04T05:26:03;8.73;;;2.23;;
9712;SDS011;4895;50.926;6.870;2022-11-04T05:28:29;7.00;;;2.30;;
9712;SDS011;4895;50.926;6.870;2022-11-04T05:30:54;7.60;;;2.20;;
9712;SDS011;4895;50.926;6.870;2022-11-04T05:33:20;14.03;;;2.20;;
9712;SDS011;4895;50.926;6.870;2022-11-04T05:35:45;5.40;;;1.90;;
9712;SDS011;4895;50.926;6.870;2022-11-04T05:38:11;10.97;;;2.63;;
9712;SDS011;4895;50.926;6.870;2022-11-04T05:40:36;5.97;;;1.77;;
9712;SDS011;4895;50.926;6.870;2022-11-04T05:43:02;12.17;;;1.93;;
9712;SDS011;4895;50.926;6.870;2022-11-04T05:45:27;5.40;;;1.80;;
9712;SDS011;4895;50.926;6.870;2022-11-04T05:47:57;13.23;;;2.27;;
9712;SDS011;4895;50.926;6.870;2022-11-04T05:50:23;2.97;;;1.70;;
9712;SDS011;4895;50.926;6.870;2022-11-04T05:52:48;11.23;;;2.60;;
9712;SDS011;4895;50.926;6.870;2022-11-04T05:55:14;7.30;;;2.83;;
9712;SDS011;4895;50.926;6.870;2022-11-04T05:57:39;7.80;;;2.37;;
9712;SDS011;4895;50.926;6.870;2022-11-04T06:00:04;12.73;;;2.40;;
9712;SDS011;4895;50.926;6.870;2022-11-04T06:02:31;6.00;;;2.30;;
9712;SDS011;4895;50.926;6.870;2022-11-04T06:04:56;7.07;;;2.80;;
9712;SDS011;4895;50.926;6.870;2022-11-04T06:07:21;5.33;;;2.20;;
9712;SDS011;4895;50.926;6.870;2022-11-04T06:09:46;8.93;;;2.30;;
9712;SDS011;4895;50.926;6.870;2022-11-04T06:12:13;9.43;;;2.67;;
9712;SDS011;4895;50.926;6.870;2022-11-04T06:14:43;5.80;;;1.93;;
9712;SDS011;4895;50.926;6.870;2022-11-04T06:17:13;10.27;;;2.20;;
9712;SDS011;4895;50.926;6.870;2022-11-04T06:19:40;9.27;;;2.40;;
9712;SDS011;4895;50.926;6.870;2022-11-04T06:22:05;8.60;;;2.13;;
9712;SDS011;4895;50.926;6.870;2022-11-04T06:24:30;8.50;;;1.90;;
9712;SDS011;4895;50.926;6.870;2022-11-04T06:26:56;5.87;;;2.47;;
9712;SDS011;4895;50.926;6.870;2022-11-04T06:29:21;9.70;;;2.20;;
9712;SDS011;4895;50.926;6.870;2022-11-04T06:31:46;6.57;;;1.90;;
9712;SDS011;4895;50.926;6.870;2022-11-04T06:34:12;7.07;;;2.00;;
9712;SDS011;4895;50.926;6.870;2022-11-04T06:36:37;5.33;;;2.40;;
9712;SDS011;4895;50.926;6.870;2022-11-04T06:39:03;8.40;;;2.33;;
9712;SDS011;4895;50.926;6.870;2022-11-04T06:41:29;5.50;;;1.93;;
9712;SDS011;4895;50.926;6.870;2022-11-04T06:43:55;10.70;;;3.00;;
9712;SDS011;4895;50.926;6.870;2022-11-04T06:46:29;7.00;;;3.03;;
9712;SDS011;4895;50.926;6.870;2022-11-04T06:48:58;7.47;;;1.97;;
9712;SDS011;4895;50.926;6.870;2022-11-04T06:51:24;6.13;;;2.10;;
9712;SDS011;4895;50.926;6.870;2022-11-04T06:53:49;6.67;;;2.07;;
9712;SDS011;4895;50.926;6.870;2022-11-04T06:56:15;8.47;;;2.23;;
9712;SDS011;4895;50.926;6.870;2022-11-04T06:58:40;11.00;;;2.20;;
9712;SDS011;4895;50.926;6.870;2022-11-04T07:01:06;8.53;;;3.33;;
9712;SDS011;4895;50.926;6.870;2022-11-04T07:03:31;5.50;;;2.30;;
9712;SDS011;4895;50.926;6.870;2022-11-04T07:05:56;5.43;;;2.57;;
9712;SDS011;4895;50.926;6.870;2022-11-04T07:08:22;15.60;;;2.93;;
9712;SDS011;4895;50.926;6.870;2022-11-04T07:10:47;5.40;;;2.10;;
9712;SDS011;4895;50.926;6.870;2022-11-04T07:13:12;5.33;;;2.37;;
9712;SDS011;4895;50.926;6.870;2022-11-04T07:15:38;9.73;;;2.80;;
9712;SDS011;4895;50.926;6.870;2022-11-04T07:18:04;8.13;;;2.30;;
9712;SDS011;4895;50.926;6.870;2022-11-04T07:20:31;5.30;;;2.40;;
9712;SDS011;4895;50.926;6.870;2022-11-04T07:22:57;6.20;;;2.10;;
9712;SDS011;4895;50.926;6.870;2022-11-04T07:25:22;9.70;;;2.50;;
9712;SDS011;4895;50.926;6.870;2022-11-04T07:27:48;6.43;;;2.30;;
9712;SDS011;4895;50.926;6.870;2022-11-04T07:30:13;5.33;;;2.30;;
9712;SDS011;4895;50.926;6.870;2022-11-04T07:32:38;6.60;;;2.30;;
9712;SDS011;4895;50.926;6.870;2022-11-04T07:35:04;11.73;;;2.20;;
9712;SDS011;4895;50.926;6.870;2022-11-04T07:37:30;4.47;;;2.10;;
9712;SDS011;4895;50.926;6.870;2022-11-04T07:39:55;10.83;;;2.60;;
9712;SDS011;4895;50.926;6.870;2022-11-04T07:42:20;8.63;;;2.67;;
9712;SDS011;4895;50.926;6.870;2022-11-04T07:44:46;5.10;;;2.33;;
9712;SDS011;4895;50.926;6.870;2022-11-04T07:47:11;5.83;;;2.50;;
9712;SDS011;4895;50.926;6.870;2022-11-04T07:49:37;8.23;;;2.60;;
9712;SDS011;4895;50.926;6.870;2022-11-04T07:52:02;8.90;;;2.37;;
9712;SDS011;4895;50.926;6.870;2022-11-04T07:54:28;7.23;;;2.70;;
9712;SDS011;4895;50.926;6.870;2022-11-04T07:56:53;5.73;;;2.50;;
9712;SDS011;4895;50.926;6.870;2022-11-04T07:59:18;7.10;;;2.60;;
9712;SDS011;4895;50.926;6.870;2022-11-04T08:01:43;8.27;;;2.83;;
9712;SDS011;4895;50.926;6.870;2022-11-04T08:04:09;12.27;;;2.40;;
9712;SDS011;4895;50.926;6.870;2022-11-04T08:06:35;5.90;;;2.33;;
9712;SDS011;4895;50.926;6.870;2022-11-04T08:09:00;11.67;;;2.77;;
9712;SDS011;4895;50.926;6.870;2022-11-04T08:11:26;6.83;;;2.53;;
9712;SDS011;4895;50.926;6.870;2022-11-04T08:13:52;5.93;;;2.33;;
9712;SDS011;4895;50.926;6.870;2022-11-04T08:16:19;6.77;;;2.60;;
9712;SDS011;4895;50.926;6.870;2022-11-04T08:18:46;6.03;;;2.43;;
9712;SDS011;4895;50.926;6.870;2022-11-04T08:21:13;11.10;;;2.77;;
9712;SDS011;4895;50.926;6.870;2022-11-04T08:23:38;9.83;;;2.60;;
9712;SDS011;4895;50.926;6.870;2022-11-04T08:26:08;11.70;;;2.67;;
9712;SDS011;4895;50.926;6.870;2022-11-04T08:28:34;11.73;;;2.80;;
9712;SDS011;4895;50.926;6.870;2022-11-04T08:31:01;4.57;;;2.90;;
9712;SDS011;4895;50.926;6.870;2022-11-04T08:33:30;6.27;;;2.63;;
9712;SDS011;4895;50.926;6.870;2022-11-04T08:36:06;9.07;;;3.13;;
9712;SDS011;4895;50.926;6.870;2022-11-04T08:38:35;8.93;;;2.63;;
9712;SDS011;4895;50.926;6.870;2022-11-04T08:41:01;8.63;;;2.57;;
9712;SDS011;4895;50.926;6.870;2022-11-04T08:43:28;11.60;;;2.90;;
9712;SDS011;4895;50.926;6.870;2022-11-04T08:45:53;12.20;;;2.67;;
9712;SDS011;4895;50.926;6.870;2022-11-04T08:48:19;10.27;;;2.60;;
9712;SDS011;4895;50.926;6.870;2022-11-04T08:50:48;8.90;;;2.87;;
9712;SDS011;4895;50.926;6.870;2022-11-04T08:53:15;9.17;;;2.60;;
9712;SDS011;4895;50.926;6.870;2022-11-04T08:55:40;10.23;;;2.80;;
9712;SDS011;4895;50.926;6.870;2022-11-04T08:58:06;9.83;;;2.60;;
9712;SDS011;4895;50.926;6.870;2022-11-04T09:00:31;8.40;;;3.20;;
9712;SDS011;4895;50.926;6.870;2022-11-04T09:02:57;9.87;;;2.93;;
9712;SDS011;4895;50.926;6.870;2022-11-04T09:05:22;10.93;;;2.60;;
9712;SDS011;4895;50.926;6.870;2022-11-04T09:07:48;13.47;;;3.50;;
9712;SDS011;4895;50.926;6.870;2022-11-04T09:10:13;9.30;;;3.03;;
9712;SDS011;4895;50.926;6.870;2022-11-04T09:12:38;7.30;;;2.53;;
9712;SDS011;4895;50.926;6.870;2022-11-04T09:15:04;9.40;;;2.57;;
9712;SDS011;4895;50.926;6.870;2022-11-04T09:17:30;10.70;;;3.10;;
9712;SDS011;4895;50.926;6.870;2022-11-04T09:19:55;11.47;;;3.43;;
9712;SDS011;4895;50.926;6.870;2022-11-04T09:22:21;9.33;;;3.00;;
9712;SDS011;4895;50.926;6.870;2022-11-04T09:24:46;7.90;;;2.83;;
9712;SDS011;4895;50.926;6.870;2022-11-04T09:27:12;15.97;;;2.83;;
9712;SDS011;4895;50.926;6.870;2022-11-04T09:29:38;8.13;;;2.63;;
9712;SDS011;4895;50.926;6.870;2022-11-04T09:32:05;6.33;;;2.43;;
9712;SDS011;4895;50.926;6.870;2022-11-04T09:34:31;6.90;;;2.50;;
9712;SDS011;4895;50.926;6.870;2022-11-04T09:36:56;10.63;;;2.30;;
9712;SDS011;4895;50.926;6.870;2022-11-04T09:39:22;10.87;;;2.90;;
9712;SDS011;4895;50.926;6.870;2022-11-04T09:47:14;11.97;;;2.20;;
9712;SDS011;4895;50.926;6.870;2022-11-04T09:49:41;13.63;;;2.70;;
9712;SDS011;4895;50.926;6.870;2022-11-04T09:52:14;6.07;;;2.23;;
9712;SDS011;4895;50.926;6.870;2022-11-04T09:58:09;18.17;;;2.67;;
9712;SDS011;4895;50.926;6.870;2022-11-04T10:00:36;11.20;;;2.53;;
9712;SDS011;4895;50.926;6.870;2022-11-04T10:24:23;6.27;;;2.93;;
9712;SDS011;4895;50.926;6.870;2022-11-04T10:26:58;12.13;;;2.77;;
9712;SDS011;4895;50.926;6.870;2022-11-04T10:29:33;8.83;;;2.63;;
9712;SDS011;4895;50.926;6.870;2022-11-04T10:32:02;11.93;;;3.30;;
9712;SDS011;4895;50.926;6.870;2022-11-04T10:34:35;7.30;;;3.07;;
9712;SDS011;4895;50.926;6.870;2022-11-04T10:37:06;8.17;;;3.30;;
9712;SDS011;4895;50.926;6.870;2022-11-04T10:39:34;10.70;;;3.33;;
9712;SDS011;4895;50.926;6.870;2022-11-04T10:42:02;9.47;;;3.73;;
9712;SDS011;4895;50.926;6.870;2022-11-04T10:44:32;14.93;;;4.30;;
9712;SDS011;4895;50.926;6.870;2022-11-04T10:52:08;13.37;;;3.90;;
9712;SDS011;4895;50.926;6.870;2022-11-04T10:54:38;10.27;;;3.13;;
9712;SDS011;4895;50.926;6.870;2022-11-04T10:57:08;25.27;;;4.43;;
9712;SDS011;4895;50.926;6.870;2022-11-04T11:07:46;11.30;;;3.10;;
9712;SDS011;4895;50.926;6.870;2022-11-04T11:10:26;8.60;;;3.53;;
9712;SDS011;4895;50.926;6.870;2022-11-04T11:15:33;10.23;;;3.27;;
9712;SDS011;4895;50.926;6.870;2022-11-04T11:20:31;9.87;;;3.43;;
9712;SDS011;4895;50.926;6.870;2022-11-04T11:23:01;8.30;;;3.23;;
9712;SDS011;4895;50.926;6.870;2022-11-04T11:25:29;13.10;;;3.43;;
9712;SDS011;4895;50.926;6.870;2022-11-04T11:28:00;11.43;;;3.80;;
9712;SDS011;4895;50.926;6.870;2022-11-04T11:30:39;9.80;;;3.00;;
9712;SDS011;4895;50.926;6.870;2022-11-04T11:33:18;9.13;;;2.80;;
9712;SDS011;4895;50.926;6.870;2022-11-04T11:35:52;7.10;;;2.63;;
9712;SDS011;4895;50.926;6.870;2022-11-04T11:40:44;6.17;;;2.47;;
9712;SDS011;4895;50.926;6.870;2022-11-04T11:43:19;7.30;;;2.63;;
9712;SDS011;4895;50.926;6.870;2022-11-04T11:45:47;9.53;;;2.47;;
9712;SDS011;4895;50.926;6.870;2022-11-04T11:48:26;6.30;;;2.23;;
9712;SDS011;4895;50.926;6.870;2022-11-04T11:50:54;6.03;;;2.13;;
9712;SDS011;4895;50.926;6.870;2022-11-04T11:53:24;4.27;;;1.90;;
9712;SDS011;4895;50.926;6.870;2022-11-04T11:58:50;7.87;;;2.33;;
9712;SDS011;4895;50.926;6.870;2022-11-04T12:03:56;4.70;;;1.60;;
9712;SDS011;4895;50.926;6.870;2022-11-04T12:09:11;5.80;;;2.10;;
9712;SDS011;4895;50.926;6.870;2022-11-04T12:12:02;3.40;;;1.50;;
9712;SDS011;4895;50.926;6.870;2022-11-04T12:19:54;3.67;;;1.67;;
9712;SDS011;4895;50.926;6.870;2022-11-04T12:30:23;3.50;;;1.73;;
9712;SDS011;4895;50.926;6.870;2022-11-04T12:32:57;9.70;;;2.20;;
9712;SDS011;4895;50.926;6.870;2022-11-04T12:35:41;4.00;;;1.60;;
9712;SDS011;4895;50.926;6.870;2022-11-04T12:43:44;35.10;;;7.83;;
9712;SDS011;4895;50.926;6.870;2022-11-04T12:46:21;9.87;;;3.13;;
9712;SDS011;4895;50.926;6.870;2022-11-04T12:52:05;10.90;;;1.97;;
9712;SDS011;4895;50.926;6.870;2022-11-04T12:59:50;4.37;;;1.47;;
9712;SDS011;4895;50.926;6.870;2022-11-04T13:04:58;5.83;;;1.93;;
9712;SDS011;4895;50.926;6.870;2022-11-04T13:07:39;9.43;;;2.00;;
9712;SDS011;4895;50.926;6.870;2022-11-04T13:10:19;13.90;;;1.90;;
9712;SDS011;4895;50.926;6.870;2022-11-04T13:12:47;4.00;;;1.40;;
9712;SDS011;4895;50.926;6.870;2022-11-04T13:15:20;7.57;;;1.60;;
9712;SDS011;4895;50.926;6.870;2022-11-04T13:17:51;4.40;;;1.87;;
9712;SDS011;4895;50.926;6.870;2022-11-04T13:23:12;4.17;;;1.50;;
9712;SDS011;4895;50.926;6.870;2022-11-04T13:25:45;12.73;;;2.00;;
9712;SDS011;4895;50.926;6.870;2022-11-04T13:28:12;4.70;;;1.20;;
9712;SDS011;4895;50.926;6.870;2022-11-04T13:30:43;6.80;;;1.90;;
9712;SDS011;4895;50.926;6.870;2022-11-04T13:35:43;5.87;;;1.83;;
9712;SDS011;4895;50.926;6.870;2022-11-04T13:38:22;5.77;;;2.13;;
9712;SDS011;4895;50.926;6.870;2022-11-04T13:43:55;6.73;;;1.80;;
9712;SDS011;4895;50.926;6.870;2022-11-04T13:48:55;5.03;;;1.70;;
9712;SDS011;4895;50.926;6.870;2022-11-04T13:51:27;4.87;;;2.00;;
9712;SDS011;4895;50.926;6.870;2022-11-04T13:53:58;5.50;;;2.07;;
9712;SDS011;4895;50.926;6.870;2022-11-04T13:56:34;8.43;;;2.00;;
9712;SDS011;4895;50.926;6.870;2022-11-04T13:59:06;10.30;;;2.40;;
9712;SDS011;4895;50.926;6.870;2022-11-04T14:01:38;5.87;;;2.03;;
9712;SDS011;4895;50.926;6.870;2022-11-04T14:04:05;13.40;;;2.10;;
9712;SDS011;4895;50.926;6.870;2022-11-04T14:07:00;5.20;;;2.40;;
9712;SDS011;4895;50.926;6.870;2022-11-04T14:14:50;5.03;;;2.20;;
9712;SDS011;4895;50.926;6.870;2022-11-04T14:25:25;7.20;;;2.03;;
9712;SDS011;4895;50.926;6.870;2022-11-04T14:33:16;12.87;;;2.70;;
9712;SDS011;4895;50.926;6.870;2022-11-04T14:35:52;9.33;;;2.60;;
9712;SDS011;4895;50.926;6.870;2022-11-04T14:38:29;7.93;;;2.67;;
9712;SDS011;4895;50.926;6.870;2022-11-04T14:44:14;7.57;;;2.53;;
9712;SDS011;4895;50.926;6.870;2022-11-04T14:46:45;12.20;;;2.40;;
9712;SDS011;4895;50.926;6.870;2022-11-04T14:52:00;8.10;;;2.47;;
9712;SDS011;4895;50.926;6.870;2022-11-04T14:54:25;9.90;;;2.87;;
9712;SDS011;4895;50.926;6.870;2022-11-04T14:57:05;5.77;;;2.37;;
9712;SDS011;4895;50.926;6.870;2022-11-04T14:59:33;13.03;;;3.13;;
9712;SDS011;4895;50.926;6.870;2022-11-04T15:02:00;7.73;;;2.93;;
9712;SDS011;4895;50.926;6.870;2022-11-04T15:04:26;6.87;;;2.60;;
9712;SDS011;4895;50.926;6.870;2022-11-04T15:06:54;9.03;;;3.13;;
9712;SDS011;4895;50.926;6.870;2022-11-04T15:09:24;11.80;;;3.57;;
9712;SDS011;4895;50.926;6.870;2022-11-04T15:14:51;14.10;;;3.47;;
9712;SDS011;4895;50.926;6.870;2022-11-04T15:17:18;11.57;;;3.83;;
9712;SDS011;4895;50.926;6.870;2022-11-04T15:19:47;23.03;;;3.23;;
9712;SDS011;4895;50.926;6.870;2022-11-04T15:22:14;9.00;;;2.90;;
9712;SDS011;4895;50.926;6.870;2022-11-04T15:24:40;6.07;;;2.80;;
9712;SDS011;4895;50.926;6.870;2022-11-04T15:27:09;13.53;;;2.80;;
9712;SDS011;4895;50.926;6.870;2022-11-04T15:29:37;6.33;;;2.60;;
9712;SDS011;4895;50.926;6.870;2022-11-04T15:32:03;9.40;;;2.77;;
9712;SDS011;4895;50.926;6.870;2022-11-04T15:34:29;7.17;;;2.70;;
9712;SDS011;4895;50.926;6.870;2022-11-04T15:36:56;12.17;;;2.50;;
9712;SDS011;4895;50.926;6.870;2022-11-04T15:39:31;12.03;;;2.90;;
9712;SDS011;4895;50.926;6.870;2022-11-04T15:42:02;12.20;;;3.10;;
9712;SDS011;4895;50.926;6.870;2022-11-04T15:44:49;10.43;;;3.70;;
9712;SDS011;4895;50.926;6.870;2022-11-04T15:49:42;14.20;;;4.30;;
9712;SDS011;4895;50.926;6.870;2022-11-04T15:52:13;23.17;;;4.30;;
9712;SDS011;4895;50.926;6.870;2022-11-04T15:54:46;9.90;;;3.47;;
9712;SDS011;4895;50.926;6.870;2022-11-04T15:57:14;9.90;;;3.83;;
9712;SDS011;4895;50.926;6.870;2022-11-04T15:59:43;9.20;;;3.47;;
9712;SDS011;4895;50.926;6.870;2022-11-04T16:02:17;9.20;;;3.70;;
9712;SDS011;4895;50.926;6.870;2022-11-04T16:05:05;12.30;;;3.97;;
9712;SDS011;4895;50.926;6.870;2022-11-04T16:07:43;8.50;;;3.27;;
9712;SDS011;4895;50.926;6.870;2022-11-04T16:10:29;10.90;;;4.27;;
9712;SDS011;4895;50.926;6.870;2022-11-04T16:15:39;13.43;;;4.13;;
9712;SDS011;4895;50.926;6.870;2022-11-04T16:18:06;6.97;;;3.80;;
9712;SDS011;4895;50.926;6.870;2022-11-04T16:20:46;11.57;;;4.83;;
9712;SDS011;4895;50.926;6.870;2022-11-04T16:23:12;18.33;;;6.77;;
9712;SDS011;4895;50.926;6.870;2022-11-04T16:25:40;16.13;;;5.23;;
9712;SDS011;4895;50.926;6.870;2022-11-04T16:28:06;17.27;;;4.70;;
9712;SDS011;4895;50.926;6.870;2022-11-04T16:30:40;10.53;;;4.37;;
9712;SDS011;4895;50.926;6.870;2022-11-04T16:33:22;14.70;;;5.20;;
9712;SDS011;4895;50.926;6.870;2022-11-04T16:35:48;13.43;;;4.47;;
9712;SDS011;4895;50.926;6.870;2022-11-04T16:38:13;9.73;;;4.00;;
9712;SDS011;4895;50.926;6.870;2022-11-04T16:40:38;10.80;;;4.20;;
9712;SDS011;4895;50.926;6.870;2022-11-04T16:43:04;15.43;;;4.90;;
9712;SDS011;4895;50.926;6.870;2022-11-04T16:45:30;20.80;;;5.73;;
9712;SDS011;4895;50.926;6.870;2022-11-04T16:47:57;12.13;;;4.47;;
9712;SDS011;4895;50.926;6.870;2022-11-04T16:50:23;9.37;;;3.97;;
9712;SDS011;4895;50.926;6.870;2022-11-04T16:52:49;15.40;;;4.07;;
9712;SDS011;4895;50.926;6.870;2022-11-04T16:55:15;11.67;;;4.90;;
9712;SDS011;4895;50.926;6.870;2022-11-04T16:57:41;8.70;;;3.87;;
9712;SDS011;4895;50.926;6.870;2022-11-04T17:00:10;18.80;;;7.73;;
9712;SDS011;4895;50.926;6.870;2022-11-04T17:02:48;25.27;;;8.53;;
9712;SDS011;4895;50.926;6.870;2022-11-04T17:05:14;13.73;;;5.50;;
9712;SDS011;4895;50.926;6.870;2022-11-04T17:07:40;17.30;;;5.47;;
9712;SDS011;4895;50.926;6.870;2022-11-04T17:10:19;9.70;;;4.30;;
9712;SDS011;4895;50.926;6.870;2022-11-04T17:12:46;14.00;;;4.40;;
9712;SDS011;4895;50.926;6.870;2022-11-04T17:15:12;9.90;;;4.67;;
9712;SDS011;4895;50.926;6.870;2022-11-04T17:17:39;13.30;;;4.40;;
9712;SDS011;4895;50.926;6.870;2022-11-04T17:20:05;15.03;;;4.63;;
9712;SDS011;4895;50.926;6.870;2022-11-04T17:22:31;12.23;;;4.80;;
9712;SDS011;4895;50.926;6.870;2022-11-04T17:24:58;16.90;;;7.43;;
9712;SDS011;4895;50.926;6.870;2022-11-04T17:27:24;19.30;;;6.77;;
9712;SDS011;4895;50.926;6.870;2022-11-04T17:29:49;12.00;;;5.93;;
9712;SDS011;4895;50.926;6.870;2022-11-04T17:32:15;15.63;;;6.30;;
9712;SDS011;4895;50.926;6.870;2022-11-04T17:34:40;16.80;;;6.17;;
9712;SDS011;4895;50.926;6.870;2022-11-04T17:37:07;18.03;;;5.53;;
9712;SDS011;4895;50.926;6.870;2022-11-04T17:39:37;20.50;;;5.47;;
9712;SDS011;4895;50.926;6.870;2022-11-04T17:42:02;37.07;;;6.47;;
9712;SDS011;4895;50.926;6.870;2022-11-04T17:44:46;13.03;;;5.80;;
9712;SDS011;4895;50.926;6.870;2022-11-04T17:47:11;19.87;;;6.20;;
9712;SDS011;4895;50.926;6.870;2022-11-04T17:49:37;52.10;;;18.37;;
9712;SDS011;4895;50.926;6.870;2022-11-04T17:52:03;13.00;;;6.17;;
9712;SDS011;4895;50.926;6.870;2022-11-04T17:54:28;12.83;;;6.10;;
9712;SDS011;4895;50.926;6.870;2022-11-04T17:56:54;19.87;;;10.80;;
9712;SDS011;4895;50.926;6.870;2022-11-04T17:59:21;22.37;;;13.17;;
9712;SDS011;4895;50.926;6.870;2022-11-04T18:01:46;11.60;;;6.43;;
9712;SDS011;4895;50.926;6.870;2022-11-04T18:04:12;14.20;;;6.53;;
9712;SDS011;4895;50.926;6.870;2022-11-04T18:06:42;16.60;;;6.73;;
9712;SDS011;4895;50.926;6.870;2022-11-04T18:09:09;12.53;;;6.47;;
9712;SDS011;4895;50.926;6.870;2022-11-04T18:11:40;16.03;;;6.03;;
9712;SDS011;4895;50.926;6.870;2022-11-04T18:14:24;18.07;;;6.20;;
9712;SDS011;4895;50.926;6.870;2022-11-04T18:16:49;12.23;;;5.90;;
9712;SDS011;4895;50.926;6.870;2022-11-04T18:19:16;13.00;;;6.50;;
9712;SDS011;4895;50.926;6.870;2022-11-04T18:21:42;12.50;;;6.20;;
9712;SDS011;4895;50.926;6.870;2022-11-04T18:24:07;23.63;;;6.13;;
9712;SDS011;4895;50.926;6.870;2022-11-04T18:26:33;12.63;;;6.93;;